Impacts METAR Board
IDs:

KCVB - Castroville Muni, TX, US

Updated at: 0300 UTC 06 Dec 2019
Potential Impact None Slight Moderate High
Time 05/15Z 05/16Z 05/17Z 05/18Z 05/19Z 05/20Z 05/21Z 05/22Z 05/23Z 06/00Z 06/01Z 06/02Z 06/03Z
Temp57 60 62 65 68 71 73 73 72 69 62 59 56
Dewpt57 60 59 57 57 56 57 56 57 57 55 56 54
Altim30.07 30.10 30.09 30.07 30.02 29.99 29.97 29.96 29.97 29.97 29.99 30.00 30.01
VIS0.5 2 10 10 10 10 10 10 10 10 10 10 10
CIG3 3 5 11 -- -- -- -- -- -- -- -- --
CoverOVCOVCOVCOVCCLRCLRCLRCLRCLRCLRCLRCLRCLR
FltCatLIFRLIFRIFRMVFRVFRVFRVFRVFRVFRVFRVFRVFRVFR
WXFGBR----------------------
WDir021020001902001801701500000
WSpd0 6 6 0 5 4 3 4 4 0 0 0 0
WGst-- -- -- -- -- -- -- -- -- -- -- -- --
Raw hourly METARs
KCVB 051455Z AUTO 00000KT 1/2SM FG OVC003 14/14 A3007 RMK AO2 T01400140
KCVB 051555Z AUTO 21006KT 2SM BR OVC003 16/16 A3010 RMK AO2 T01550155
KCVB 051655Z AUTO 20006KT 10SM OVC005 16/15 A3009 RMK AO2 T01640152
KCVB 051755Z AUTO 00000KT 10SM OVC011 19/14 A3007 RMK AO2 T01850138 10188 20113
KCVB 051855Z AUTO 19005KT 10SM CLR 20/14 A3002 RMK AO2 T02000137
KCVB 051955Z AUTO 20004KT 10SM CLR 22/14 A2999 RMK AO2 T02170135
KCVB 052055Z AUTO 18003KT 10SM CLR 23/14 A2997 RMK AO2 T02280137
KCVB 052155Z AUTO 17004KT 10SM CLR 23/14 A2996 RMK AO2 T02280136
KCVB 052255Z AUTO 15004KT 10SM CLR 22/14 A2997 RMK AO2 T02200138
KCVB 052355Z AUTO 00000KT 10SM CLR 20/14 A2997 RMK AO2 T02030141 10239 20185
KCVB 060055Z AUTO 00000KT 10SM CLR 17/13 A2999 RMK AO2 T01690128
KCVB 060155Z AUTO 00000KT 10SM CLR 15/13 A3000 RMK AO2 T01500133
KCVB 060255Z AUTO 00000KT 10SM CLR 14/12 A3001 RMK AO2 T01350123